sensor_id;sensor_type;location;lat;lon;timestamp;temperature;humidity
22532;DHT22;11432;46.924;7.114;2022-09-09T00:02:27;17.20;1.00
22532;DHT22;11432;46.924;7.114;2022-09-09T00:05:17;17.20;1.00
22532;DHT22;11432;46.924;7.114;2022-09-09T00:07:51;17.30;1.00
22532;DHT22;11432;46.924;7.114;2022-09-09T00:15:21;17.30;1.00
22532;DHT22;11432;46.924;7.114;2022-09-09T00:18:17;17.30;1.00
22532;DHT22;11432;46.924;7.114;2022-09-09T00:23:29;17.20;1.00
22532;DHT22;11432;46.924;7.114;2022-09-09T00:26:09;17.30;1.00
22532;DHT22;11432;46.924;7.114;2022-09-09T00:28:47;17.30;1.00
22532;DHT22;11432;46.924;7.114;2022-09-09T00:31:20;17.30;1.00
22532;DHT22;11432;46.924;7.114;2022-09-09T00:33:49;17.30;1.00
22532;DHT22;11432;46.924;7.114;2022-09-09T00:36:20;17.20;1.00
22532;DHT22;11432;46.924;7.114;2022-09-09T00:39:00;17.20;1.00
22532;DHT22;11432;46.924;7.114;2022-09-09T00:41:49;17.20;1.00
22532;DHT22;11432;46.924;7.114;2022-09-09T00:44:31;17.10;16.50
22532;DHT22;11432;46.924;7.114;2022-09-09T00:47:09;17.10;44.10
22532;DHT22;11432;46.924;7.114;2022-09-09T00:49:53;17.10;1.00
22532;DHT22;11432;46.924;7.114;2022-09-09T00:55:14;17.10;1.00
22532;DHT22;11432;46.924;7.114;2022-09-09T00:57:41;17.10;1.00
22532;DHT22;11432;46.924;7.114;2022-09-09T01:05:57;16.90;43.20
22532;DHT22;11432;46.924;7.114;2022-09-09T01:08:36;16.80;75.50
22532;DHT22;11432;46.924;7.114;2022-09-09T01:11:09;16.80;99.90
22532;DHT22;11432;46.924;7.114;2022-09-09T01:13:36;16.70;99.90
22532;DHT22;11432;46.924;7.114;2022-09-09T01:16:04;16.50;99.90
22532;DHT22;11432;46.924;7.114;2022-09-09T01:18:40;16.30;99.90
22532;DHT22;11432;46.924;7.114;2022-09-09T01:21:20;16.10;99.90
22532;DHT22;11432;46.924;7.114;2022-09-09T01:26:54;15.80;99.90
22532;DHT22;11432;46.924;7.114;2022-09-09T01:29:21;15.80;99.90
22532;DHT22;11432;46.924;7.114;2022-09-09T01:34:20;15.70;99.90
22532;DHT22;11432;46.924;7.114;2022-09-09T01:36:57;15.70;99.90
22532;DHT22;11432;46.924;7.114;2022-09-09T01:39:25;15.70;99.90
22532;DHT22;11432;46.924;7.114;2022-09-09T01:41:52;15.70;99.90
22532;DHT22;11432;46.924;7.114;2022-09-09T01:44:19;15.70;99.90
22532;DHT22;11432;46.924;7.114;2022-09-09T01:46:44;15.70;99.90
22532;DHT22;11432;46.924;7.114;2022-09-09T01:49:10;15.70;99.90
22532;DHT22;11432;46.924;7.114;2022-09-09T01:51:38;15.70;99.90
22532;DHT22;11432;46.924;7.114;2022-09-09T01:54:05;15.60;99.90
22532;DHT22;11432;46.924;7.114;2022-09-09T01:56:43;15.60;99.90
22532;DHT22;11432;46.924;7.114;2022-09-09T02:04:50;15.60;99.90
22532;DHT22;11432;46.924;7.114;2022-09-09T02:12:36;15.70;99.90
22532;DHT22;11432;46.924;7.114;2022-09-09T02:15:07;15.80;99.90
22532;DHT22;11432;46.924;7.114;2022-09-09T02:17:36;15.90;99.90
22532;DHT22;11432;46.924;7.114;2022-09-09T02:20:12;15.90;99.90
22532;DHT22;11432;46.924;7.114;2022-09-09T02:22:42;15.90;99.90
22532;DHT22;11432;46.924;7.114;2022-09-09T02:25:12;15.90;99.90
22532;DHT22;11432;46.924;7.114;2022-09-09T02:27:41;15.90;99.90
22532;DHT22;11432;46.924;7.114;2022-09-09T02:30:09;15.90;99.90
22532;DHT22;11432;46.924;7.114;2022-09-09T02:32:36;15.90;99.90
22532;DHT22;11432;46.924;7.114;2022-09-09T02:35:08;15.90;99.90
22532;DHT22;11432;46.924;7.114;2022-09-09T02:37:38;15.80;99.90
22532;DHT22;11432;46.924;7.114;2022-09-09T02:40:06;15.80;99.90
22532;DHT22;11432;46.924;7.114;2022-09-09T02:42:45;15.80;99.90
22532;DHT22;11432;46.924;7.114;2022-09-09T02:45:14;15.80;99.90
22532;DHT22;11432;46.924;7.114;2022-09-09T02:50:34;15.70;99.90
22532;DHT22;11432;46.924;7.114;2022-09-09T02:53:18;15.70;99.90
22532;DHT22;11432;46.924;7.114;2022-09-09T02:56:08;15.70;99.90
22532;DHT22;11432;46.924;7.114;2022-09-09T02:58:35;15.60;99.90
22532;DHT22;11432;46.924;7.114;2022-09-09T03:01:01;15.60;99.90
22532;DHT22;11432;46.924;7.114;2022-09-09T03:03:28;15.60;99.90
22532;DHT22;11432;46.924;7.114;2022-09-09T03:05:54;15.70;99.90
22532;DHT22;11432;46.924;7.114;2022-09-09T03:08:20;15.70;99.90
22532;DHT22;11432;46.924;7.114;2022-09-09T03:10:45;15.60;99.90
22532;DHT22;11432;46.924;7.114;2022-09-09T03:13:11;15.60;99.90
22532;DHT22;11432;46.924;7.114;2022-09-09T03:15:38;15.60;99.90
22532;DHT22;11432;46.924;7.114;2022-09-09T03:18:04;15.60;99.90
22532;DHT22;11432;46.924;7.114;2022-09-09T03:20:30;15.60;99.90
22532;DHT22;11432;46.924;7.114;2022-09-09T03:22:56;15.50;99.90
22532;DHT22;11432;46.924;7.114;2022-09-09T03:25:23;15.50;99.90
22532;DHT22;11432;46.924;7.114;2022-09-09T03:27:50;15.50;99.90
22532;DHT22;11432;46.924;7.114;2022-09-09T03:30:23;15.50;99.90
22532;DHT22;11432;46.924;7.114;2022-09-09T03:32:49;15.50;99.90
22532;DHT22;11432;46.924;7.114;2022-09-09T03:35:14;15.50;99.90
22532;DHT22;11432;46.924;7.114;2022-09-09T03:37:41;15.50;99.90
22532;DHT22;11432;46.924;7.114;2022-09-09T03:40:07;15.40;99.90
22532;DHT22;11432;46.924;7.114;2022-09-09T03:42:35;15.40;99.90
22532;DHT22;11432;46.924;7.114;2022-09-09T03:45:03;15.40;99.90
22532;DHT22;11432;46.924;7.114;2022-09-09T03:47:28;15.40;99.90
22532;DHT22;11432;46.924;7.114;2022-09-09T03:49:55;15.30;99.90
22532;DHT22;11432;46.924;7.114;2022-09-09T03:52:20;15.30;99.90
22532;DHT22;11432;46.924;7.114;2022-09-09T03:54:50;15.40;99.90
22532;DHT22;11432;46.924;7.114;2022-09-09T03:57:17;15.40;99.90
22532;DHT22;11432;46.924;7.114;2022-09-09T03:59:43;15.40;99.90
22532;DHT22;11432;46.924;7.114;2022-09-09T04:02:09;15.40;99.90
22532;DHT22;11432;46.924;7.114;2022-09-09T04:04:35;15.40;99.90
22532;DHT22;11432;46.924;7.114;2022-09-09T04:07:00;15.40;99.90
22532;DHT22;11432;46.924;7.114;2022-09-09T04:09:26;15.40;99.90
22532;DHT22;11432;46.924;7.114;2022-09-09T04:11:52;15.50;99.90
22532;DHT22;11432;46.924;7.114;2022-09-09T04:14:18;15.50;99.90
22532;DHT22;11432;46.924;7.114;2022-09-09T04:16:44;15.60;99.90
22532;DHT22;11432;46.924;7.114;2022-09-09T04:19:11;15.60;99.90
22532;DHT22;11432;46.924;7.114;2022-09-09T04:21:39;15.60;99.90
22532;DHT22;11432;46.924;7.114;2022-09-09T04:24:06;15.60;99.90
22532;DHT22;11432;46.924;7.114;2022-09-09T04:26:32;15.60;99.90
22532;DHT22;11432;46.924;7.114;2022-09-09T04:28:58;15.60;99.90
22532;DHT22;11432;46.924;7.114;2022-09-09T04:31:24;15.70;99.90
22532;DHT22;11432;46.924;7.114;2022-09-09T04:33:53;15.60;99.90
22532;DHT22;11432;46.924;7.114;2022-09-09T04:36:18;15.70;99.90
22532;DHT22;11432;46.924;7.114;2022-09-09T04:38:45;15.70;99.90
22532;DHT22;11432;46.924;7.114;2022-09-09T04:41:11;15.70;99.90
22532;DHT22;11432;46.924;7.114;2022-09-09T04:43:38;15.70;99.90
22532;DHT22;11432;46.924;7.114;2022-09-09T04:46:04;15.70;99.90
22532;DHT22;11432;46.924;7.114;2022-09-09T04:48:31;15.70;99.90
22532;DHT22;11432;46.924;7.114;2022-09-09T04:51:03;15.70;99.90
22532;DHT22;11432;46.924;7.114;2022-09-09T04:53:30;15.70;99.90
22532;DHT22;11432;46.924;7.114;2022-09-09T04:56:10;15.70;99.90
22532;DHT22;11432;46.924;7.114;2022-09-09T04:58:36;15.70;99.90
22532;DHT22;11432;46.924;7.114;2022-09-09T05:01:22;15.70;99.90
22532;DHT22;11432;46.924;7.114;2022-09-09T05:03:49;15.80;99.90
22532;DHT22;11432;46.924;7.114;2022-09-09T05:06:18;15.80;99.90
22532;DHT22;11432;46.924;7.114;2022-09-09T05:08:44;15.90;99.90
22532;DHT22;11432;46.924;7.114;2022-09-09T05:11:30;15.90;99.90
22532;DHT22;11432;46.924;7.114;2022-09-09T05:13:56;15.90;99.90
22532;DHT22;11432;46.924;7.114;2022-09-09T05:16:22;15.90;99.90
22532;DHT22;11432;46.924;7.114;2022-09-09T05:18:48;15.90;99.90
22532;DHT22;11432;46.924;7.114;2022-09-09T05:21:17;15.90;99.90
22532;DHT22;11432;46.924;7.114;2022-09-09T05:23:44;15.80;99.90
22532;DHT22;11432;46.924;7.114;2022-09-09T05:26:13;15.80;99.90
22532;DHT22;11432;46.924;7.114;2022-09-09T05:28:39;15.80;99.90
22532;DHT22;11432;46.924;7.114;2022-09-09T05:31:06;15.80;99.90
22532;DHT22;11432;46.924;7.114;2022-09-09T05:33:37;15.70;99.90
22532;DHT22;11432;46.924;7.114;2022-09-09T05:36:07;15.60;99.90
22532;DHT22;11432;46.924;7.114;2022-09-09T05:38:34;15.60;99.90
22532;DHT22;11432;46.924;7.114;2022-09-09T05:41:01;15.70;99.90
22532;DHT22;11432;46.924;7.114;2022-09-09T05:43:28;15.70;99.90
22532;DHT22;11432;46.924;7.114;2022-09-09T05:46:06;15.70;99.90
22532;DHT22;11432;46.924;7.114;2022-09-09T05:48:34;15.70;99.90
22532;DHT22;11432;46.924;7.114;2022-09-09T05:51:00;15.80;99.90
22532;DHT22;11432;46.924;7.114;2022-09-09T05:53:27;15.80;99.90
22532;DHT22;11432;46.924;7.114;2022-09-09T05:56:04;15.90;99.90
22532;DHT22;11432;46.924;7.114;2022-09-09T05:58:34;16.00;99.90
22532;DHT22;11432;46.924;7.114;2022-09-09T06:01:12;16.00;99.90
22532;DHT22;11432;46.924;7.114;2022-09-09T06:03:40;16.20;99.90
22532;DHT22;11432;46.924;7.114;2022-09-09T06:06:08;16.30;99.90
22532;DHT22;11432;46.924;7.114;2022-09-09T06:08:35;16.50;99.90
22532;DHT22;11432;46.924;7.114;2022-09-09T06:11:09;16.50;99.90
22532;DHT22;11432;46.924;7.114;2022-09-09T06:13:36;16.40;99.90
22532;DHT22;11432;46.924;7.114;2022-09-09T06:16:09;16.30;99.90
22532;DHT22;11432;46.924;7.114;2022-09-09T06:18:37;16.20;99.90
22532;DHT22;11432;46.924;7.114;2022-09-09T06:21:07;16.30;99.90
22532;DHT22;11432;46.924;7.114;2022-09-09T06:23:34;16.30;99.90
22532;DHT22;11432;46.924;7.114;2022-09-09T06:26:05;16.30;99.90
22532;DHT22;11432;46.924;7.114;2022-09-09T06:28:32;16.30;99.90
22532;DHT22;11432;46.924;7.114;2022-09-09T06:31:02;16.50;99.90
22532;DHT22;11432;46.924;7.114;2022-09-09T06:33:34;16.60;99.90
22532;DHT22;11432;46.924;7.114;2022-09-09T06:36:00;16.80;99.90
22532;DHT22;11432;46.924;7.114;2022-09-09T06:38:26;16.90;99.90
22532;DHT22;11432;46.924;7.114;2022-09-09T06:40:57;16.90;99.90
22532;DHT22;11432;46.924;7.114;2022-09-09T06:43:27;16.80;99.90
22532;DHT22;11432;46.924;7.114;2022-09-09T06:46:02;16.80;65.90
22532;DHT22;11432;46.924;7.114;2022-09-09T06:48:28;16.90;94.60
22532;DHT22;11432;46.924;7.114;2022-09-09T06:51:05;17.10;94.30
22532;DHT22;11432;46.924;7.114;2022-09-09T06:53:33;17.30;62.70
22532;DHT22;11432;46.924;7.114;2022-09-09T06:56:31;17.50;24.30
22532;DHT22;11432;46.924;7.114;2022-09-09T06:58:59;17.60;27.50
22532;DHT22;11432;46.924;7.114;2022-09-09T07:01:27;17.80;60.10
22532;DHT22;11432;46.924;7.114;2022-09-09T07:03:55;18.00;11.40
22532;DHT22;11432;46.924;7.114;2022-09-09T07:06:32;17.80;1.00
22532;DHT22;11432;46.924;7.114;2022-09-09T07:09:00;17.60;13.70
22532;DHT22;11432;46.924;7.114;2022-09-09T07:11:28;17.70;1.00
22532;DHT22;11432;46.924;7.114;2022-09-09T07:13:55;17.80;14.80
22532;DHT22;11432;46.924;7.114;2022-09-09T07:16:22;17.90;1.00
22532;DHT22;11432;46.924;7.114;2022-09-09T07:18:50;18.00;1.00
22532;DHT22;11432;46.924;7.114;2022-09-09T07:21:16;18.00;1.00
22532;DHT22;11432;46.924;7.114;2022-09-09T07:23:42;17.90;1.00
22532;DHT22;11432;46.924;7.114;2022-09-09T07:26:13;18.00;1.00
22532;DHT22;11432;46.924;7.114;2022-09-09T07:28:40;18.10;1.00
22532;DHT22;11432;46.924;7.114;2022-09-09T07:31:09;17.90;1.00
22532;DHT22;11432;46.924;7.114;2022-09-09T07:33:39;17.90;1.00
22532;DHT22;11432;46.924;7.114;2022-09-09T07:38:47;18.00;1.00
22532;DHT22;11432;46.924;7.114;2022-09-09T07:41:16;18.40;1.00
22532;DHT22;11432;46.924;7.114;2022-09-09T07:43:44;18.30;1.00
22532;DHT22;11432;46.924;7.114;2022-09-09T07:46:11;18.50;1.00
22532;DHT22;11432;46.924;7.114;2022-09-09T07:48:38;18.70;1.00
22532;DHT22;11432;46.924;7.114;2022-09-09T07:51:13;18.90;1.00
22532;DHT22;11432;46.924;7.114;2022-09-09T07:53:42;18.90;1.00
22532;DHT22;11432;46.924;7.114;2022-09-09T07:56:11;18.60;1.00
22532;DHT22;11432;46.924;7.114;2022-09-09T07:58:37;18.50;1.00
22532;DHT22;11432;46.924;7.114;2022-09-09T08:01:14;18.20;1.00
22532;DHT22;11432;46.924;7.114;2022-09-09T08:03:40;18.20;1.00
22532;DHT22;11432;46.924;7.114;2022-09-09T08:06:08;18.30;1.00
22532;DHT22;11432;46.924;7.114;2022-09-09T08:08:35;18.30;1.00
22532;DHT22;11432;46.924;7.114;2022-09-09T08:11:09;18.40;1.00
22532;DHT22;11432;46.924;7.114;2022-09-09T08:13:36;18.60;1.00
22532;DHT22;11432;46.924;7.114;2022-09-09T08:16:13;18.60;1.00
22532;DHT22;11432;46.924;7.114;2022-09-09T08:18:39;18.70;1.00
22532;DHT22;11432;46.924;7.114;2022-09-09T08:21:14;18.80;1.00
22532;DHT22;11432;46.924;7.114;2022-09-09T08:23:42;19.00;1.00
22532;DHT22;11432;46.924;7.114;2022-09-09T08:26:12;19.00;1.00
22532;DHT22;11432;46.924;7.114;2022-09-09T08:28:39;19.00;1.00
22532;DHT22;11432;46.924;7.114;2022-09-09T08:33:35;19.20;1.00
22532;DHT22;11432;46.924;7.114;2022-09-09T08:36:04;19.10;1.00
22532;DHT22;11432;46.924;7.114;2022-09-09T08:38:30;19.10;1.00
22532;DHT22;11432;46.924;7.114;2022-09-09T08:41:50;18.80;1.00
22532;DHT22;11432;46.924;7.114;2022-09-09T08:44:13;18.90;1.00
22532;DHT22;11432;46.924;7.114;2022-09-09T08:47:15;19.20;1.00
22532;DHT22;11432;46.924;7.114;2022-09-09T08:55:56;19.10;1.00
22532;DHT22;11432;46.924;7.114;2022-09-09T08:58:30;19.50;1.00
22532;DHT22;11432;46.924;7.114;2022-09-09T09:09:16;19.50;1.00
22532;DHT22;11432;46.924;7.114;2022-09-09T09:11:54;19.20;1.00
22532;DHT22;11432;46.924;7.114;2022-09-09T09:14:23;19.00;1.00
22532;DHT22;11432;46.924;7.114;2022-09-09T09:17:06;19.20;1.00
22532;DHT22;11432;46.924;7.114;2022-09-09T09:19:35;19.10;1.00
22532;DHT22;11432;46.924;7.114;2022-09-09T09:25:02;19.90;1.00
22532;DHT22;11432;46.924;7.114;2022-09-09T09:27:36;19.60;1.00
22532;DHT22;11432;46.924;7.114;2022-09-09T09:30:28;19.20;1.00
22532;DHT22;11432;46.924;7.114;2022-09-09T09:33:15;19.10;1.00
22532;DHT22;11432;46.924;7.114;2022-09-09T09:35:41;19.10;1.00
22532;DHT22;11432;46.924;7.114;2022-09-09T09:38:21;19.60;1.00
22532;DHT22;11432;46.924;7.114;2022-09-09T09:40:53;19.90;1.00
22532;DHT22;11432;46.924;7.114;2022-09-09T09:43:37;20.20;1.00
22532;DHT22;11432;46.924;7.114;2022-09-09T09:46:05;20.30;1.00
22532;DHT22;11432;46.924;7.114;2022-09-09T09:48:31;20.20;1.00
22532;DHT22;11432;46.924;7.114;2022-09-09T09:51:01;20.20;1.00
22532;DHT22;11432;46.924;7.114;2022-09-09T09:53:33;20.50;1.00
22532;DHT22;11432;46.924;7.114;2022-09-09T09:56:10;20.70;1.00
22532;DHT22;11432;46.924;7.114;2022-09-09T10:01:02;20.80;1.00
22532;DHT22;11432;46.924;7.114;2022-09-09T10:03:33;21.00;1.00
22532;DHT22;11432;46.924;7.114;2022-09-09T10:06:03;21.30;1.00
22532;DHT22;11432;46.924;7.114;2022-09-09T10:08:29;21.00;9.10
22532;DHT22;11432;46.924;7.114;2022-09-09T10:17:03;21.20;3.40
22532;DHT22;11432;46.924;7.114;2022-09-09T10:19:36;21.60;1.00
22532;DHT22;11432;46.924;7.114;2022-09-09T10:22:27;21.40;12.40
22532;DHT22;11432;46.924;7.114;2022-09-09T10:25:22;21.30;1.00
22532;DHT22;11432;46.924;7.114;2022-09-09T10:33:13;21.50;1.00
22532;DHT22;11432;46.924;7.114;2022-09-09T10:35:52;21.50;1.00
22532;DHT22;11432;46.924;7.114;2022-09-09T10:53:02;22.40;1.00
22532;DHT22;11432;46.924;7.114;2022-09-09T10:55:45;22.00;1.00
22532;DHT22;11432;46.924;7.114;2022-09-09T10:58:28;21.50;1.00
22532;DHT22;11432;46.924;7.114;2022-09-09T11:00:58;21.30;1.00
22532;DHT22;11432;46.924;7.114;2022-09-09T11:03:29;21.10;1.00
22532;DHT22;11432;46.924;7.114;2022-09-09T11:06:16;21.20;1.00
22532;DHT22;11432;46.924;7.114;2022-09-09T11:08:43;21.50;1.00
22532;DHT22;11432;46.924;7.114;2022-09-09T11:11:17;21.50;1.00
22532;DHT22;11432;46.924;7.114;2022-09-09T11:13:54;21.40;1.00
22532;DHT22;11432;46.924;7.114;2022-09-09T11:18:46;21.90;1.00
22532;DHT22;11432;46.924;7.114;2022-09-09T11:21:25;22.30;1.00
22532;DHT22;11432;46.924;7.114;2022-09-09T11:24:58;22.50;1.00
22532;DHT22;11432;46.924;7.114;2022-09-09T11:32:26;22.60;1.00
22532;DHT22;11432;46.924;7.114;2022-09-09T11:38:55;23.10;1.00
22532;DHT22;11432;46.924;7.114;2022-09-09T11:40:59;23.70;1.00
22532;DHT22;11432;46.924;7.114;2022-09-09T11:43:30;24.60;1.00
22532;DHT22;11432;46.924;7.114;2022-09-09T11:45:59;24.70;1.00
22532;DHT22;11432;46.924;7.114;2022-09-09T11:48:45;23.90;14.70
22532;DHT22;11432;46.924;7.114;2022-09-09T11:51:27;23.60;15.90
22532;DHT22;11432;46.924;7.114;2022-09-09T11:54:02;24.50;7.60
22532;DHT22;11432;46.924;7.114;2022-09-09T11:56:29;25.70;10.10
22532;DHT22;11432;46.924;7.114;2022-09-09T11:59:21;25.40;15.50
22532;DHT22;11432;46.924;7.114;2022-09-09T12:01:59;25.30;5.70
22532;DHT22;11432;46.924;7.114;2022-09-09T12:04:38;24.20;1.90
22532;DHT22;11432;46.924;7.114;2022-09-09T12:10:04;22.70;1.00
22532;DHT22;11432;46.924;7.114;2022-09-09T12:12:37;23.10;5.10
22532;DHT22;11432;46.924;7.114;2022-09-09T12:17:43;25.40;3.60
22532;DHT22;11432;46.924;7.114;2022-09-09T12:20:33;24.60;3.70
22532;DHT22;11432;46.924;7.114;2022-09-09T12:23:20;23.10;2.90
22532;DHT22;11432;46.924;7.114;2022-09-09T12:26:46;22.40;1.00
22532;DHT22;11432;46.924;7.114;2022-09-09T12:29:18;22.00;1.00
22532;DHT22;11432;46.924;7.114;2022-09-09T12:32:05;22.00;1.00
22532;DHT22;11432;46.924;7.114;2022-09-09T12:37:34;24.90;1.00
22532;DHT22;11432;46.924;7.114;2022-09-09T12:40:06;25.60;1.00
22532;DHT22;11432;46.924;7.114;2022-09-09T12:42:32;25.50;1.00
22532;DHT22;11432;46.924;7.114;2022-09-09T12:45:03;25.60;1.00
22532;DHT22;11432;46.924;7.114;2022-09-09T12:48:03;26.10;1.00
22532;DHT22;11432;46.924;7.114;2022-09-09T12:50:37;26.40;1.00
22532;DHT22;11432;46.924;7.114;2022-09-09T12:53:08;26.60;1.00
22532;DHT22;11432;46.924;7.114;2022-09-09T12:55:37;26.50;1.00
22532;DHT22;11432;46.924;7.114;2022-09-09T12:58:05;26.80;1.00
22532;DHT22;11432;46.924;7.114;2022-09-09T13:00:32;27.10;1.00
22532;DHT22;11432;46.924;7.114;2022-09-09T13:03:13;26.80;1.00
22532;DHT22;11432;46.924;7.114;2022-09-09T13:05:41;27.20;1.00
22532;DHT22;11432;46.924;7.114;2022-09-09T13:08:12;25.10;1.00
22532;DHT22;11432;46.924;7.114;2022-09-09T13:11:02;24.20;1.00
22532;DHT22;11432;46.924;7.114;2022-09-09T13:13:35;25.00;1.00
22532;DHT22;11432;46.924;7.114;2022-09-09T13:16:02;24.70;1.00
22532;DHT22;11432;46.924;7.114;2022-09-09T13:18:35;24.30;1.00
22532;DHT22;11432;46.924;7.114;2022-09-09T13:21:01;23.90;1.00
22532;DHT22;11432;46.924;7.114;2022-09-09T13:23:30;24.50;1.00
22532;DHT22;11432;46.924;7.114;2022-09-09T13:25:58;25.50;1.00
22532;DHT22;11432;46.924;7.114;2022-09-09T13:28:27;26.10;1.00
22532;DHT22;11432;46.924;7.114;2022-09-09T13:31:19;26.50;1.00
22532;DHT22;11432;46.924;7.114;2022-09-09T13:33:43;25.30;1.00
22532;DHT22;11432;46.924;7.114;2022-09-09T13:36:11;25.80;1.00
22532;DHT22;11432;46.924;7.114;2022-09-09T13:39:02;26.10;1.00
22532;DHT22;11432;46.924;7.114;2022-09-09T13:43:56;24.80;1.00
22532;DHT22;11432;46.924;7.114;2022-09-09T13:49:21;24.10;1.00
22532;DHT22;11432;46.924;7.114;2022-09-09T13:51:49;23.20;1.00
22532;DHT22;11432;46.924;7.114;2022-09-09T13:54:18;24.30;1.00
22532;DHT22;11432;46.924;7.114;2022-09-09T13:56:44;24.20;1.00
22532;DHT22;11432;46.924;7.114;2022-09-09T13:59:18;25.30;1.00
22532;DHT22;11432;46.924;7.114;2022-09-09T14:01:45;26.50;1.00
22532;DHT22;11432;46.924;7.114;2022-09-09T14:04:11;27.00;1.00
22532;DHT22;11432;46.924;7.114;2022-09-09T14:06:38;27.20;1.00
22532;DHT22;11432;46.924;7.114;2022-09-09T14:09:06;27.30;1.00
22532;DHT22;11432;46.924;7.114;2022-09-09T14:11:32;27.10;1.00
22532;DHT22;11432;46.924;7.114;2022-09-09T14:13:57;27.10;1.00
22532;DHT22;11432;46.924;7.114;2022-09-09T14:16:23;26.80;1.00
22532;DHT22;11432;46.924;7.114;2022-09-09T14:18:49;26.80;1.00
22532;DHT22;11432;46.924;7.114;2022-09-09T14:21:14;27.50;1.00
22532;DHT22;11432;46.924;7.114;2022-09-09T14:23:41;27.00;1.00
22532;DHT22;11432;46.924;7.114;2022-09-09T14:26:07;24.20;1.00
22532;DHT22;11432;46.924;7.114;2022-09-09T14:28:33;23.50;1.00
22532;DHT22;11432;46.924;7.114;2022-09-09T14:31:00;23.00;1.00
22532;DHT22;11432;46.924;7.114;2022-09-09T14:33:26;22.90;1.00
22532;DHT22;11432;46.924;7.114;2022-09-09T14:36:02;23.40;1.00
22532;DHT22;11432;46.924;7.114;2022-09-09T14:38:33;23.00;1.00
22532;DHT22;11432;46.924;7.114;2022-09-09T14:41:00;22.60;1.00
22532;DHT22;11432;46.924;7.114;2022-09-09T14:43:28;22.30;1.00
22532;DHT22;11432;46.924;7.114;2022-09-09T14:45:55;22.30;1.00
22532;DHT22;11432;46.924;7.114;2022-09-09T14:48:21;22.20;1.00
22532;DHT22;11432;46.924;7.114;2022-09-09T14:50:46;23.10;1.00
22532;DHT22;11432;46.924;7.114;2022-09-09T14:53:12;24.30;1.00
22532;DHT22;11432;46.924;7.114;2022-09-09T14:55:37;24.30;1.00
22532;DHT22;11432;46.924;7.114;2022-09-09T14:58:04;24.60;1.00
22532;DHT22;11432;46.924;7.114;2022-09-09T15:00:30;24.30;1.00
22532;DHT22;11432;46.924;7.114;2022-09-09T15:02:56;23.50;1.00
22532;DHT22;11432;46.924;7.114;2022-09-09T15:05:22;22.80;1.00
22532;DHT22;11432;46.924;7.114;2022-09-09T15:07:48;22.40;1.00
22532;DHT22;11432;46.924;7.114;2022-09-09T15:10:17;22.10;1.00
22532;DHT22;11432;46.924;7.114;2022-09-09T15:12:43;21.90;1.00
22532;DHT22;11432;46.924;7.114;2022-09-09T15:15:09;21.70;1.00
22532;DHT22;11432;46.924;7.114;2022-09-09T15:17:35;21.50;1.00
22532;DHT22;11432;46.924;7.114;2022-09-09T15:20:03;21.30;1.00
22532;DHT22;11432;46.924;7.114;2022-09-09T15:22:31;21.30;1.00
22532;DHT22;11432;46.924;7.114;2022-09-09T15:24:57;21.30;1.00
22532;DHT22;11432;46.924;7.114;2022-09-09T15:27:22;20.90;99.90
22532;DHT22;11432;46.924;7.114;2022-09-09T15:29:49;19.90;99.90
22532;DHT22;11432;46.924;7.114;2022-09-09T15:32:15;19.50;99.90
22532;DHT22;11432;46.924;7.114;2022-09-09T15:34:41;19.20;99.90
22532;DHT22;11432;46.924;7.114;2022-09-09T15:37:10;19.10;1.00
22532;DHT22;11432;46.924;7.114;2022-09-09T15:39:36;19.00;99.90
22532;DHT22;11432;46.924;7.114;2022-09-09T15:42:01;19.10;99.90
22532;DHT22;11432;46.924;7.114;2022-09-09T15:44:27;19.10;99.90
22532;DHT22;11432;46.924;7.114;2022-09-09T15:46:53;19.20;99.90
22532;DHT22;11432;46.924;7.114;2022-09-09T15:49:23;19.40;99.90
22532;DHT22;11432;46.924;7.114;2022-09-09T15:51:55;19.60;99.90
22532;DHT22;11432;46.924;7.114;2022-09-09T15:54:22;19.70;99.90
22532;DHT22;11432;46.924;7.114;2022-09-09T15:56:55;19.70;99.90
22532;DHT22;11432;46.924;7.114;2022-09-09T15:59:26;19.70;99.90
22532;DHT22;11432;46.924;7.114;2022-09-09T16:01:53;19.70;99.90
22532;DHT22;11432;46.924;7.114;2022-09-09T16:04:20;19.60;99.90
22532;DHT22;11432;46.924;7.114;2022-09-09T16:06:59;19.50;99.90
22532;DHT22;11432;46.924;7.114;2022-09-09T16:09:26;19.30;99.90
22532;DHT22;11432;46.924;7.114;2022-09-09T16:11:52;18.90;1.00
22532;DHT22;11432;46.924;7.114;2022-09-09T16:14:19;18.30;1.00
22532;DHT22;11432;46.924;7.114;2022-09-09T16:16:45;17.60;1.00
22532;DHT22;11432;46.924;7.114;2022-09-09T16:19:11;17.20;1.00
22532;DHT22;11432;46.924;7.114;2022-09-09T16:21:46;17.00;1.00
22532;DHT22;11432;46.924;7.114;2022-09-09T16:24:15;16.90;22.10
22532;DHT22;11432;46.924;7.114;2022-09-09T16:26:43;16.90;19.40
22532;DHT22;11432;46.924;7.114;2022-09-09T16:29:13;16.90;1.00
22532;DHT22;11432;46.924;7.114;2022-09-09T16:31:40;16.90;1.00
22532;DHT22;11432;46.924;7.114;2022-09-09T16:34:06;17.00;1.00
22532;DHT22;11432;46.924;7.114;2022-09-09T16:36:34;17.20;1.00
22532;DHT22;11432;46.924;7.114;2022-09-09T16:39:02;17.60;1.00
22532;DHT22;11432;46.924;7.114;2022-09-09T16:41:29;17.80;1.00
22532;DHT22;11432;46.924;7.114;2022-09-09T16:43:57;17.90;1.00
22532;DHT22;11432;46.924;7.114;2022-09-09T16:46:23;18.00;1.00
22532;DHT22;11432;46.924;7.114;2022-09-09T16:48:49;17.90;1.00
22532;DHT22;11432;46.924;7.114;2022-09-09T16:51:20;17.80;1.00
22532;DHT22;11432;46.924;7.114;2022-09-09T16:53:47;17.80;1.00
22532;DHT22;11432;46.924;7.114;2022-09-09T16:56:16;17.80;1.00
22532;DHT22;11432;46.924;7.114;2022-09-09T16:58:42;17.70;1.00
22532;DHT22;11432;46.924;7.114;2022-09-09T17:01:09;17.60;1.00
22532;DHT22;11432;46.924;7.114;2022-09-09T17:03:36;17.50;1.00
22532;DHT22;11432;46.924;7.114;2022-09-09T17:06:02;17.50;1.00
22532;DHT22;11432;46.924;7.114;2022-09-09T17:08:31;17.50;1.00
22532;DHT22;11432;46.924;7.114;2022-09-09T17:10:58;17.50;1.00
22532;DHT22;11432;46.924;7.114;2022-09-09T17:13:24;17.50;1.00
22532;DHT22;11432;46.924;7.114;2022-09-09T17:15:50;17.40;1.00
22532;DHT22;11432;46.924;7.114;2022-09-09T17:18:16;17.40;1.00
22532;DHT22;11432;46.924;7.114;2022-09-09T17:20:42;17.40;1.00
22532;DHT22;11432;46.924;7.114;2022-09-09T17:23:10;17.40;1.00
22532;DHT22;11432;46.924;7.114;2022-09-09T17:25:36;17.50;1.00
22532;DHT22;11432;46.924;7.114;2022-09-09T17:28:03;17.50;1.00
22532;DHT22;11432;46.924;7.114;2022-09-09T17:30:30;17.40;1.00
22532;DHT22;11432;46.924;7.114;2022-09-09T17:32:59;17.40;1.00
22532;DHT22;11432;46.924;7.114;2022-09-09T17:35:25;17.30;1.00
22532;DHT22;11432;46.924;7.114;2022-09-09T17:37:53;17.20;1.00
22532;DHT22;11432;46.924;7.114;2022-09-09T17:40:20;17.30;1.00
22532;DHT22;11432;46.924;7.114;2022-09-09T17:42:46;17.30;1.00
22532;DHT22;11432;46.924;7.114;2022-09-09T17:45:12;17.20;1.00
22532;DHT22;11432;46.924;7.114;2022-09-09T17:47:38;17.20;1.00
22532;DHT22;11432;46.924;7.114;2022-09-09T17:50:05;17.20;1.00
22532;DHT22;11432;46.924;7.114;2022-09-09T17:52:32;17.20;1.00
22532;DHT22;11432;46.924;7.114;2022-09-09T17:54:58;17.10;1.00